Time;durP1;ratioP1;P1;durP2;ratioP2;P2;SDS_P1;SDS_P2;PMS_P1;PMS_P2;Temp;Humidity;BMP_temperature;BMP_pressure;BME280_temperature;BME280_humidity;BME280_pressure;Samples;Min_cycle;Max_cycle;Signal;HPM_P1;HPM_P2
2024/02/13 00:00:50;;;;;;;6.32;2.47;;;;;;;4.72;100.00;99949.53;4956954;28;20055;-59
2024/02/13 00:03:18;;;;;;;2.78;1.48;;;;;;;4.72;100.00;99948.72;4970844;28;20055;-60
2024/02/13 00:05:45;;;;;;;7.20;1.65;;;;;;;4.71;100.00;99958.88;4969927;28;20043;-60
2024/02/13 00:08:13;;;;;;;5.32;1.83;;;;;;;4.72;100.00;99954.22;4969841;28;20043;-63
2024/02/13 00:10:42;;;;;;;6.13;1.50;;;;;;;4.72;100.00;99941.31;4968246;28;20054;-62
2024/02/13 00:13:09;;;;;;;4.75;2.35;;;;;;;4.72;100.00;99949.53;4969975;28;20054;-60
2024/02/13 00:15:38;;;;;;;8.10;2.20;;;;;;;4.73;100.00;99953.91;4970009;28;20050;-60
2024/02/13 00:18:07;;;;;;;5.45;1.60;;;;;;;4.72;100.00;99954.22;4969644;28;20620;-60
2024/02/13 00:20:35;;;;;;;4.35;1.92;;;;;;;4.70;100.00;99957.28;4969429;28;20712;-60
2024/02/13 00:23:05;;;;;;;7.30;2.22;;;;;;;4.67;100.00;99963.41;4969395;28;20047;-60
2024/02/13 00:25:32;;;;;;;7.22;1.88;;;;;;;4.64;100.00;99957.78;4969736;28;20484;-60
2024/02/13 00:28:00;;;;;;;6.85;1.80;;;;;;;4.62;100.00;99962.78;4969048;28;20065;-60
2024/02/13 00:30:27;;;;;;;6.53;1.70;;;;;;;4.58;100.00;99959.09;4969947;28;20065;-60
2024/02/13 00:32:58;;;;;;;5.13;1.45;;;;;;;4.56;100.00;99961.31;4969784;28;20051;-60
2024/02/13 00:35:26;;;;;;;3.58;1.02;;;;;;;4.53;100.00;99957.31;4968462;28;20055;-60
2024/02/13 00:37:53;;;;;;;7.05;1.48;;;;;;;4.52;100.00;99960.38;4969111;28;20054;-60
2024/02/13 00:40:21;;;;;;;5.68;1.60;;;;;;;4.51;100.00;99966.97;4968866;28;20078;-60
2024/02/13 00:42:52;;;;;;;2.60;1.30;;;;;;;4.50;100.00;99970.88;4969197;28;20691;-60
2024/02/13 00:45:19;;;;;;;7.65;1.73;;;;;;;4.47;100.00;99968.75;4968544;28;20084;-60
2024/02/13 00:47:48;;;;;;;5.95;1.50;;;;;;;4.46;100.00;99972.63;4967501;28;20517;-60
2024/02/13 00:50:16;;;;;;;4.95;1.38;;;;;;;4.43;100.00;99967.78;4969001;28;20686;-60
2024/02/13 00:52:44;;;;;;;5.55;1.35;;;;;;;4.43;100.00;99978.75;4967725;28;20047;-60
2024/02/13 00:55:11;;;;;;;5.90;1.65;;;;;;;4.41;100.00;99975.53;4968488;28;20043;-60
2024/02/13 00:57:39;;;;;;;5.40;1.85;;;;;;;4.39;100.00;99970.38;4969158;28;20412;-61
2024/02/13 01:00:10;;;;;;;3.08;1.27;;;;;;;4.38;100.00;99976.16;4962873;28;20128;-60
2024/02/13 01:02:38;;;;;;;5.47;1.63;;;;;;;4.37;100.00;99980.06;4965357;28;20070;-61
2024/02/13 01:05:06;;;;;;;7.55;1.20;;;;;;;4.36;100.00;99979.25;4969349;28;20053;-60
2024/02/13 01:07:35;;;;;;;8.95;2.42;;;;;;;4.37;100.00;99972.63;4968535;28;20505;-60
2024/02/13 01:10:06;;;;;;;14.48;2.17;;;;;;;4.36;100.00;99979.25;4968916;28;20153;-60
2024/02/13 01:12:34;;;;;;;9.75;1.67;;;;;;;4.36;100.00;99975.69;4959290;28;20043;-60
2024/02/13 01:15:02;;;;;;;3.78;1.58;;;;;;;4.35;100.00;99965.84;4960725;28;20077;-60
2024/02/13 01:17:29;;;;;;;8.68;1.50;;;;;;;4.34;100.00;99967.81;4968780;28;20050;-60
2024/02/13 01:19:57;;;;;;;13.10;2.63;;;;;;;4.34;100.00;99975.22;4958401;28;20051;-61
2024/02/13 01:22:24;;;;;;;9.90;2.35;;;;;;;4.34;100.00;99972.47;4968822;28;20133;-60
2024/02/13 01:24:52;;;;;;;9.10;1.40;;;;;;;4.35;100.00;99971.34;4968578;28;20047;-60
2024/02/13 01:27:20;;;;;;;4.95;1.67;;;;;;;4.37;100.00;99980.06;4968729;28;20058;-60
2024/02/13 01:29:47;;;;;;;11.75;1.50;;;;;;;4.39;100.00;99967.66;4967410;28;20050;-62
2024/02/13 01:32:16;;;;;;;11.82;2.05;;;;;;;4.43;100.00;99963.13;4966206;28;20050;-60
2024/02/13 01:34:44;;;;;;;3.92;1.20;;;;;;;4.44;100.00;99961.19;4967587;28;20097;-60
2024/02/13 01:37:12;;;;;;;8.00;1.48;;;;;;;4.47;100.00;99966.03;4960441;28;20599;-60
2024/02/13 01:39:39;;;;;;;6.45;1.42;;;;;;;4.50;100.00;99957.94;4964458;28;20074;-60
2024/02/13 01:42:09;;;;;;;8.40;1.40;;;;;;;4.51;100.00;99958.75;4972291;28;20047;-60
2024/02/13 01:44:37;;;;;;;7.72;1.20;;;;;;;4.53;100.00;99948.25;4971482;28;20075;-61
2024/02/13 01:47:04;;;;;;;7.43;1.70;;;;;;;4.54;100.00;99956.19;4971516;28;20382;-61
2024/02/13 01:49:32;;;;;;;2.22;0.90;;;;;;;4.55;100.00;99954.25;4971277;28;20421;-60
2024/02/13 01:52:03;;;;;;;10.68;1.40;;;;;;;4.56;100.00;99955.84;4972089;28;20536;-60
2024/02/13 01:54:32;;;;;;;12.20;2.70;;;;;;;4.55;100.00;99960.53;4983565;28;20069;-60
2024/02/13 01:56:59;;;;;;;4.55;1.60;;;;;;;4.56;100.00;99961.31;4971693;28;20050;-60
2024/02/13 01:59:27;;;;;;;6.55;1.80;;;;;;;4.54;100.00;99960.84;4961463;28;20445;-60
2024/02/13 02:01:55;;;;;;;4.10;1.70;;;;;;;4.52;100.00;99965.84;4971836;28;20071;-59
2024/02/13 02:04:26;;;;;;;5.82;1.50;;;;;;;4.51;100.00;99969.72;4970734;28;20055;-59
2024/02/13 02:06:54;;;;;;;4.13;1.48;;;;;;;4.51;100.00;99969.72;4971150;28;20050;-60
2024/02/13 02:09:23;;;;;;;3.33;1.02;;;;;;;4.51;100.00;99969.72;4971575;28;20043;-60
2024/02/13 02:11:50;;;;;;;3.47;1.33;;;;;;;4.51;100.00;99969.72;4971167;28;20050;-60
2024/02/13 02:14:17;;;;;;;2.80;1.30;;;;;;;4.51;100.00;99969.72;4972238;28;20047;-60
2024/02/13 02:16:45;;;;;;;10.10;2.20;;;;;;;4.52;100.00;99960.38;4970880;28;20540;-60
2024/02/13 02:19:13;;;;;;;3.70;1.00;;;;;;;4.50;100.00;99963.44;4971638;28;20045;-60
2024/02/13 02:21:40;;;;;;;4.40;1.30;;;;;;;4.48;100.00;99981.31;4971260;28;20051;-64
2024/02/13 02:24:08;;;;;;;3.75;1.30;;;;;;;4.44;100.00;99962.00;4971691;28;20113;-60
2024/02/13 02:26:35;;;;;;;6.00;1.30;;;;;;;4.45;100.00;99965.56;4971570;28;20043;-60
2024/02/13 02:29:05;;;;;;;6.82;1.65;;;;;;;4.45;100.00;99957.31;4970867;28;20516;-60
2024/02/13 02:31:32;;;;;;;5.82;1.17;;;;;;;4.46;100.00;99956.19;4971256;28;20062;-60
2024/02/13 02:34:01;;;;;;;5.55;1.45;;;;;;;4.46;100.00;99967.16;4968902;28;20725;-59
2024/02/13 02:36:29;;;;;;;3.20;1.23;;;;;;;4.48;100.00;99964.88;4970196;28;20055;-60
2024/02/13 02:38:56;;;;;;;4.85;1.20;;;;;;;4.48;100.00;99959.41;4970807;28;20035;-62
2024/02/13 02:41:23;;;;;;;4.63;1.30;;;;;;;4.47;100.00;99963.28;4970474;28;20590;-59
2024/02/13 02:43:52;;;;;;;5.03;1.30;;;;;;;4.45;100.00;99962.81;4970107;28;20051;-60
2024/02/13 02:46:19;;;;;;;6.80;3.60;;;;;;;4.42;100.00;99966.19;4970344;28;20047;-59
2024/02/13 02:48:46;;;;;;;4.35;1.08;;;;;;;4.39;100.00;99967.66;4970504;28;20054;-60
2024/02/13 02:51:14;;;;;;;4.55;1.88;;;;;;;4.38;100.00;99973.44;4969502;28;20523;-60
2024/02/13 02:53:41;;;;;;;6.20;1.55;;;;;;;4.37;100.00;99969.88;4970764;28;20420;-60
2024/02/13 02:56:14;;;;;;;5.95;1.90;;;;;;;4.35;100.00;99968.59;4969708;28;20378;-60
2024/02/13 02:58:42;;;;;;;9.00;2.70;;;;;;;4.33;100.00;99968.94;4970437;28;20035;-60
2024/02/13 03:01:09;;;;;;;5.65;1.52;;;;;;;4.31;100.00;99971.97;4888859;22;20033;-60
2024/02/13 03:03:37;;;;;;;6.93;1.70;;;;;;;4.31;100.00;99974.72;4989301;28;20073;-61
2024/02/13 03:06:05;;;;;;;3.92;1.48;;;;;;;4.30;100.00;99981.34;4989880;28;20065;-61
2024/02/13 03:08:33;;;;;;;8.65;1.70;;;;;;;4.29;100.00;99990.69;4989849;28;20046;-60
2024/02/13 03:11:00;;;;;;;3.90;1.30;;;;;;;4.27;100.00;99979.25;4989729;28;20066;-60
2024/02/13 03:13:28;;;;;;;2.53;1.48;;;;;;;4.24;100.00;99982.63;4988482;28;20038;-60
2024/02/13 03:15:55;;;;;;;5.97;1.90;;;;;;;4.21;100.00;99983.25;4989920;28;20061;-61
2024/02/13 03:18:24;;;;;;;2.50;1.88;;;;;;;4.20;100.00;99987.16;4989723;28;20046;-61
2024/02/13 03:20:52;;;;;;;4.63;1.88;;;;;;;4.18;100.00;99983.13;4989647;28;20399;-61
2024/02/13 03:23:19;;;;;;;6.18;1.63;;;;;;;4.17;100.00;99981.50;4989421;28;20065;-61
2024/02/13 03:25:46;;;;;;;2.63;1.17;;;;;;;4.14;100.00;99974.72;4977388;28;20045;-61
2024/02/13 03:28:14;;;;;;;4.13;1.33;;;;;;;4.13;100.00;99977.78;4989846;28;20054;-61
2024/02/13 03:30:41;;;;;;;2.15;1.13;;;;;;;4.12;100.00;99970.69;4976842;28;20057;-61
2024/02/13 03:33:08;;;;;;;2.20;0.85;;;;;;;4.10;100.00;99968.25;4987666;28;20054;-61
2024/02/13 03:35:36;;;;;;;2.92;1.20;;;;;;;4.09;100.00;99965.84;4989137;28;20055;-61
2024/02/13 03:38:04;;;;;;;2.78;0.90;;;;;;;4.07;100.00;99966.19;4987586;28;20054;-60
2024/02/13 03:40:31;;;;;;;7.68;1.67;;;;;;;4.06;100.00;99961.00;4988920;28;20065;-61
2024/02/13 03:42:59;;;;;;;5.15;1.27;;;;;;;4.03;100.00;99959.72;4989043;28;20524;-60
2024/02/13 03:45:27;;;;;;;4.05;1.23;;;;;;;4.02;100.00;99971.00;4987379;28;20062;-60
2024/02/13 03:47:54;;;;;;;3.15;1.02;;;;;;;4.01;100.00;99970.19;4989003;28;20058;-60
2024/02/13 03:50:22;;;;;;;2.70;0.70;;;;;;;4.00;100.00;99965.84;4989035;28;20054;-60
2024/02/13 03:52:50;;;;;;;3.20;1.15;;;;;;;4.01;100.00;99961.97;4988557;28;20058;-61
2024/02/13 03:55:19;;;;;;;6.00;1.05;;;;;;;4.01;100.00;99958.44;4989185;28;20062;-61
2024/02/13 03:57:47;;;;;;;4.63;1.02;;;;;;;4.01;100.00;99961.97;4989531;28;20049;-60
2024/02/13 04:00:14;;;;;;;4.43;1.23;;;;;;;4.02;100.00;99962.78;4989045;28;20724;-60
2024/02/13 04:02:44;;;;;;;5.35;1.55;;;;;;;4.01;100.00;99956.50;4989137;28;20061;-60
2024/02/13 04:05:12;;;;;;;4.20;1.17;;;;;;;4.01;100.00;99961.19;4988755;28;20404;-60
2024/02/13 04:07:40;;;;;;;3.97;0.93;;;;;;;4.01;100.00;99956.50;4988514;28;20053;-61
2024/02/13 04:10:07;;;;;;;3.00;1.40;;;;;;;4.01;100.00;99951.03;4988821;28;20046;-60
2024/02/13 04:12:35;;;;;;;4.05;1.10;;;;;;;4.00;100.00;99948.59;4988609;28;20050;-60
2024/02/13 04:15:03;;;;;;;7.25;1.65;;;;;;;3.99;100.00;99947.81;4988194;28;20058;-60
2024/02/13 04:17:30;;;;;;;6.90;1.10;;;;;;;4.00;100.00;99948.59;4988225;28;20050;-60
2024/02/13 04:19:58;;;;;;;7.78;1.02;;;;;;;4.00;100.00;99943.13;4971144;28;20065;-61
2024/02/13 04:22:25;;;;;;;3.00;0.80;;;;;;;3.99;100.00;99947.81;4988394;28;20061;-60
2024/02/13 04:24:52;;;;;;;5.25;0.80;;;;;;;4.00;100.00;99941.19;4975570;28;21033;-61
2024/02/13 04:27:20;;;;;;;6.07;1.10;;;;;;;4.01;100.00;99940.06;4988526;28;20828;-61
2024/02/13 04:29:48;;;;;;;4.22;1.35;;;;;;;4.02;100.00;99938.97;4988242;28;20428;-62
2024/02/13 04:32:16;;;;;;;4.85;0.70;;;;;;;4.05;100.00;99946.50;4987976;28;20050;-61
2024/02/13 04:34:43;;;;;;;6.97;0.90;;;;;;;4.07;100.00;99938.81;4988254;28;20058;-61
2024/02/13 04:37:11;;;;;;;1.85;0.85;;;;;;;4.08;100.00;99951.34;4988210;28;20516;-61
2024/02/13 04:39:38;;;;;;;4.20;0.88;;;;;;;4.09;100.00;99952.16;4987488;28;20054;-61
2024/02/13 04:42:05;;;;;;;4.97;0.93;;;;;;;4.10;100.00;99949.09;4988030;28;20512;-61
2024/02/13 04:44:33;;;;;;;3.60;0.63;;;;;;;4.11;100.00;99939.75;4987840;28;20063;-60
2024/02/13 04:47:00;;;;;;;5.68;0.73;;;;;;;4.13;100.00;99951.19;4987976;28;20061;-61
2024/02/13 04:49:28;;;;;;;1.15;0.90;;;;;;;4.13;100.00;99945.72;4986013;28;20062;-61
2024/02/13 04:51:56;;;;;;;4.82;0.90;;;;;;;4.15;100.00;99942.66;4988063;28;20042;-60
2024/02/13 04:54:24;;;;;;;1.75;0.80;;;;;;;4.13;100.00;99940.22;4987647;28;20050;-60
2024/02/13 04:56:53;;;;;;;4.45;1.25;;;;;;;4.13;100.00;99931.22;4987434;28;20515;-60
2024/02/13 04:59:22;;;;;;;2.85;0.73;;;;;;;4.12;100.00;99938.63;4988045;28;20050;-60
2024/02/13 05:01:52;;;;;;;3.83;0.70;;;;;;;4.13;100.00;99934.75;4986926;28;20058;-60
2024/02/13 05:09:33;;;;;;;3.15;0.98;;;;;;;4.15;100.00;99943.47;4987765;28;20050;-61
2024/02/13 05:12:00;;;;;;;2.67;0.93;;;;;;;4.15;100.00;99946.22;4986445;28;20475;-60
2024/02/13 05:14:28;;;;;;;6.35;0.90;;;;;;;4.17;100.00;99938.47;4986892;28;20162;-60
2024/02/13 05:16:55;;;;;;;4.68;1.52;;;;;;;4.18;100.00;99923.63;4987375;28;20054;-62
2024/02/13 05:19:22;;;;;;;3.28;0.90;;;;;;;4.18;100.00;99925.59;4974826;28;20054;-59
2024/02/13 05:21:50;;;;;;;1.75;0.60;;;;;;;4.20;100.00;99924.13;4986920;28;20540;-61
2024/02/13 05:24:18;;;;;;;7.47;1.08;;;;;;;4.21;100.00;99935.88;4987299;28;20054;-59
2024/02/13 05:26:45;;;;;;;3.35;0.63;;;;;;;4.22;100.00;99935.56;4986567;28;20042;-60
2024/02/13 05:29:13;;;;;;;4.38;0.88;;;;;;;4.22;100.00;99927.34;4987493;28;20432;-60
2024/02/13 05:31:41;;;;;;;3.65;1.00;;;;;;;4.23;100.00;99937.19;4987009;28;20054;-61
2024/02/13 05:34:09;;;;;;;2.72;1.00;;;;;;;4.23;100.00;99937.19;4987017;28;20054;-61
2024/02/13 05:36:37;;;;;;;5.15;0.60;;;;;;;4.22;100.00;99924.63;4986760;28;20057;-60
2024/02/13 05:39:04;;;;;;;7.75;0.90;;;;;;;4.22;100.00;99930.09;4986601;28;20047;-60
2024/02/13 05:41:32;;;;;;;5.45;0.73;;;;;;;4.23;100.00;99937.19;4987358;28;20682;-60
2024/02/13 05:44:03;;;;;;;3.38;0.52;;;;;;;4.23;100.00;99926.22;4987447;28;20059;-60
2024/02/13 05:46:30;;;;;;;4.30;0.60;;;;;;;4.23;100.00;99933.66;4987149;28;20381;-61
2024/02/13 05:49:00;;;;;;;5.10;0.93;;;;;;;4.23;100.00;99926.22;4987305;28;20031;-61
2024/02/13 05:51:29;;;;;;;6.47;1.10;;;;;;;4.24;100.00;99930.56;4986826;28;20065;-60
2024/02/13 05:53:57;;;;;;;2.40;1.45;;;;;;;4.23;100.00;99934.44;4986670;28;20051;-61
2024/02/13 05:56:25;;;;;;;6.97;1.63;;;;;;;4.23;100.00;99931.72;4987094;28;20050;-60
2024/02/13 05:59:00;;;;;;;6.57;1.30;;;;;;;4.22;100.00;99934.75;4987190;28;20054;-61
2024/02/13 06:01:28;;;;;;;6.10;2.75;;;;;;;4.22;100.00;99943.78;4986675;28;20412;-60
2024/02/13 06:03:58;;;;;;;7.65;0.80;;;;;;;4.22;100.00;99932.81;4987699;28;20061;-60
2024/02/13 06:06:25;;;;;;;1.20;0.70;;;;;;;4.22;100.00;99932.81;4986593;28;20062;-61
2024/02/13 06:08:56;;;;;;;6.60;1.02;;;;;;;4.22;100.00;99935.56;4984940;28;20054;-61
2024/02/13 06:11:24;;;;;;;5.55;1.05;;;;;;;4.20;100.00;99931.53;4987050;28;20042;-60
2024/02/13 06:13:53;;;;;;;7.18;0.90;;;;;;;4.17;100.00;99935.75;4986492;28;20051;-60
2024/02/13 06:16:21;;;;;;;9.20;1.30;;;;;;;4.16;100.00;99936.84;4986722;28;20054;-60
2024/02/13 06:18:48;;;;;;;1.65;0.52;;;;;;;4.18;100.00;99940.06;4986523;28;20432;-60
2024/02/13 06:21:18;;;;;;;2.50;1.50;;;;;;;4.18;100.00;99934.59;4986254;28;20046;-60
2024/02/13 06:23:50;;;;;;;4.30;1.10;;;;;;;4.19;100.00;99930.72;4986464;28;20054;-60
2024/02/13 06:26:18;;;;;;;1.92;0.98;;;;;;;4.20;100.00;99926.88;4987584;28;20069;-60
2024/02/13 06:28:46;;;;;;;3.97;1.10;;;;;;;4.21;100.00;99931.22;4990318;28;20554;-60
2024/02/13 06:31:14;;;;;;;2.85;0.98;;;;;;;4.21;100.00;99930.41;4990504;28;20738;-60
2024/02/13 06:33:41;;;;;;;7.97;2.13;;;;;;;4.20;100.00;99924.13;4989806;28;20061;-60
2024/02/13 06:36:12;;;;;;;5.25;1.00;;;;;;;4.20;100.00;99915.91;4990293;28;20077;-60
2024/02/13 06:38:40;;;;;;;3.47;0.93;;;;;;;4.19;100.00;99919.78;4990343;28;20042;-61
2024/02/13 06:41:10;;;;;;;4.80;1.27;;;;;;;4.17;100.00;99919.31;4990075;28;20038;-60
2024/02/13 06:43:38;;;;;;;4.78;1.40;;;;;;;4.12;100.00;99913.97;4989858;28;20049;-60
2024/02/13 06:46:05;;;;;;;4.22;1.58;;;;;;;4.13;100.00;99920.28;4989959;28;20050;-60
2024/02/13 06:48:32;;;;;;;7.30;1.40;;;;;;;4.13;100.00;99921.06;4981407;28;20046;-61
2024/02/13 06:51:01;;;;;;;2.35;1.40;;;;;;;4.08;100.00;99918.47;4990332;28;20801;-60
2024/02/13 06:53:29;;;;;;;5.53;1.73;;;;;;;4.06;100.00;99915.25;4990729;28;20648;-60
2024/02/13 06:55:56;;;;;;;2.97;0.82;;;;;;;4.06;100.00;99915.25;4989518;28;20920;-60
2024/02/13 06:58:23;;;;;;;4.57;1.23;;;;;;;4.05;100.00;99916.38;4990524;28;20058;-60
2024/02/13 07:00:52;;;;;;;4.97;1.50;;;;;;;4.04;100.00;99920.25;4990474;28;20059;-60
2024/02/13 07:03:19;;;;;;;5.45;2.55;;;;;;;4.03;100.00;99921.38;4989953;28;20586;-61
2024/02/13 07:05:47;;;;;;;5.90;1.50;;;;;;;4.02;100.00;99936.22;4990201;28;20062;-60
2024/02/13 07:08:15;;;;;;;3.75;1.08;;;;;;;4.02;100.00;99925.28;4985456;28;20068;-60
2024/02/13 07:10:42;;;;;;;3.55;1.08;;;;;;;4.02;100.00;99924.47;4988180;28;20034;-56
2024/02/13 07:13:10;;;;;;;3.97;2.67;;;;;;;4.02;100.00;99922.53;4988991;28;20057;-59
2024/02/13 07:15:37;;;;;;;2.00;1.00;;;;;;;4.00;100.00;99922.03;4989273;28;20681;-60
2024/02/13 07:18:06;;;;;;;8.05;1.35;;;;;;;3.99;100.00;99925.91;4988349;28;20380;-58
2024/02/13 07:20:34;;;;;;;7.22;1.30;;;;;;;3.98;100.00;99924.28;4988420;28;20057;-58
2024/02/13 07:23:02;;;;;;;5.28;1.13;;;;;;;3.98;100.00;99929.75;4989263;28;20062;-61
2024/02/13 07:25:30;;;;;;;4.38;1.15;;;;;;;3.96;100.00;99921.06;4989047;28;20050;-60
2024/02/13 07:27:57;;;;;;;10.23;1.65;;;;;;;3.95;100.00;99919.44;4989483;28;20053;-61
2024/02/13 07:30:25;;;;;;;5.78;1.15;;;;;;;3.95;100.00;99924.91;4988579;28;20038;-60
2024/02/13 07:32:54;;;;;;;5.97;1.77;;;;;;;3.93;100.00;99924.44;4989358;28;20039;-60
2024/02/13 07:35:22;;;;;;;5.75;1.38;;;;;;;3.93;100.00;99918.97;4989244;28;20488;-60
2024/02/13 07:37:50;;;;;;;10.77;3.35;;;;;;;3.95;100.00;99927.66;4989042;28;20058;-60
2024/02/13 07:40:17;;;;;;;9.77;1.92;;;;;;;3.95;100.00;99921.38;4988259;28;20054;-61
2024/02/13 07:42:45;;;;;;;4.40;1.40;;;;;;;3.94;100.00;99922.50;4988549;28;20074;-61
2024/02/13 07:45:12;;;;;;;3.42;1.77;;;;;;;3.94;100.00;99917.03;4975781;28;20050;-60
2024/02/13 07:47:41;;;;;;;12.10;2.65;;;;;;;3.96;100.00;99925.72;4988677;28;20046;-61
2024/02/13 07:50:09;;;;;;;3.67;1.15;;;;;;;3.94;100.00;99922.50;4987923;28;20046;-61
2024/02/13 07:52:39;;;;;;;6.00;1.58;;;;;;;3.94;100.00;99928.00;4988822;28;20050;-60
2024/02/13 07:55:06;;;;;;;4.70;1.40;;;;;;;3.95;100.00;99935.88;4985538;28;20100;-60
2024/02/13 07:57:36;;;;;;;4.60;1.60;;;;;;;3.94;100.00;99937.03;4987996;28;20531;-60
2024/02/13 08:00:04;;;;;;;5.85;2.13;;;;;;;3.95;100.00;99930.41;4988927;28;20054;-60
2024/02/13 08:02:32;;;;;;;3.85;1.80;;;;;;;3.97;100.00;99930.88;4987579;28;20050;-61
2024/02/13 08:04:59;;;;;;;2.83;1.65;;;;;;;3.97;100.00;99933.63;4982702;28;20408;-60
2024/02/13 08:07:27;;;;;;;12.85;6.28;;;;;;;4.00;100.00;99938.44;4984315;28;20606;-60
2024/02/13 08:09:55;;;;;;;11.23;4.72;;;;;;;4.02;100.00;99944.44;4988339;28;20053;-60
2024/02/13 08:12:24;;;;;;;13.25;6.07;;;;;;;4.03;100.00;99946.03;4988275;28;20496;-58
2024/02/13 08:14:52;;;;;;;15.55;7.13;;;;;;;4.06;100.00;99948.13;4979916;28;20159;-60
2024/02/13 08:17:20;;;;;;;13.35;6.00;;;;;;;4.08;100.00;99936.84;4986100;28;20046;-58
2024/02/13 08:19:47;;;;;;;16.52;6.25;;;;;;;4.12;100.00;99940.56;4988789;28;20057;-59
2024/02/13 08:22:18;;;;;;;16.55;5.32;;;;;;;4.13;100.00;99937.50;4988796;28;20050;-59
2024/02/13 08:24:45;;;;;;;10.35;4.65;;;;;;;4.15;100.00;99938.00;4988756;28;20038;-59
2024/02/13 08:27:14;;;;;;;12.98;5.95;;;;;;;4.18;100.00;99945.53;4985027;28;20061;-59
2024/02/13 08:29:42;;;;;;;10.88;6.15;;;;;;;4.20;100.00;99948.78;4981651;28;20054;-60
2024/02/13 08:32:09;;;;;;;10.52;4.53;;;;;;;4.25;100.00;99951.38;4988014;28;20046;-58
2024/02/13 08:34:38;;;;;;;11.57;5.28;;;;;;;4.28;100.00;99939.78;4987788;28;20057;-60
2024/02/13 08:37:05;;;;;;;7.72;5.20;;;;;;;4.35;100.00;99935.72;4988175;28;20855;-60
2024/02/13 08:39:33;;;;;;;10.77;3.42;;;;;;;4.41;100.00;99937.16;4989136;28;20054;-60
2024/02/13 08:42:01;;;;;;;11.18;3.08;;;;;;;4.47;100.00;99936.69;4987951;28;20108;-60
2024/02/13 08:44:30;;;;;;;10.10;4.80;;;;;;;4.53;100.00;99929.06;4988357;28;20054;-62
2024/02/13 08:46:57;;;;;;;5.35;2.47;;;;;;;4.60;100.00;99927.47;4981764;28;20039;-59
2024/02/13 08:49:25;;;;;;;3.85;2.28;;;;;;;4.67;100.00;99935.19;4985604;28;20057;-60
2024/02/13 08:51:53;;;;;;;8.18;3.33;;;;;;;4.73;100.00;99934.72;4988074;28;20038;-57
2024/02/13 08:54:20;;;;;;;5.75;1.73;;;;;;;4.82;100.00;99937.41;4988003;28;20062;-60
2024/02/13 08:56:47;;;;;;;5.93;1.50;;;;;;;4.85;100.00;99925.78;4986921;28;20054;-59
2024/02/13 08:59:15;;;;;;;3.72;0.90;;;;;;;4.90;100.00;99929.16;4987890;28;20057;-60
2024/02/13 09:01:44;;;;;;;4.82;1.20;;;;;;;4.95;100.00;99919.16;4988168;28;20070;-60
2024/02/13 09:04:11;;;;;;;6.00;0.95;;;;;;;5.00;100.00;99919.78;4987754;28;20046;-60
2024/02/13 09:06:38;;;;;;;6.00;1.65;;;;;;;5.07;100.00;99911.84;4988005;28;20051;-59
2024/02/13 09:09:08;;;;;;;2.72;1.30;;;;;;;5.15;100.00;99915.69;4987248;28;20054;-59
2024/02/13 09:11:36;;;;;;;5.90;1.80;;;;;;;5.23;100.00;99915.66;4979490;28;20053;-60
2024/02/13 09:14:03;;;;;;;6.15;1.30;;;;;;;5.32;100.00;99919.16;4987301;28;20054;-60
2024/02/13 09:16:32;;;;;;;6.22;1.55;;;;;;;5.38;100.00;99917.03;4988314;28;20594;-60
2024/02/13 09:18:59;;;;;;;4.50;1.88;;;;;;;5.42;100.00;99912.50;4985200;28;20053;-60
2024/02/13 09:21:28;;;;;;;5.35;2.67;;;;;;;5.47;100.00;99913.13;4977813;28;20797;-60
2024/02/13 09:23:55;;;;;;;10.52;2.85;;;;;;;5.52;100.00;99904.69;4985514;28;20043;-60
2024/02/13 09:26:23;;;;;;;10.20;4.13;;;;;;;5.58;100.00;99904.50;4987766;28;20483;-60
2024/02/13 09:28:50;;;;;;;14.70;6.40;;;;;;;5.62;100.00;99908.16;4986090;28;20069;-60
2024/02/13 09:31:18;;;;;;;18.52;8.10;;;;;;;5.67;100.00;99899.72;4987423;28;20412;-61
2024/02/13 09:33:46;;;;;;;22.15;7.70;;;;;;;5.73;100.00;99906.66;5002411;28;20057;-60
2024/02/13 09:36:20;;;;;;;38.08;11.13;;;;;;;5.77;100.00;99902.13;4987796;28;20053;-60
2024/02/13 09:38:47;;;;;;;36.75;11.85;;;;;;;5.81;100.00;99900.28;4987634;28;20046;-60
2024/02/13 09:41:15;;;;;;;19.27;8.35;;;;;;;5.87;100.00;99901.75;4987362;28;20051;-60
2024/02/13 09:43:45;;;;;;;22.65;7.47;;;;;;;5.91;100.00;99897.97;4985755;28;20396;-60
2024/02/13 09:46:17;;;;;;;29.98;11.68;;;;;;;5.98;100.00;99894.72;4987356;28;20642;-60
2024/02/13 09:48:47;;;;;;;30.27;10.27;;;;;;;6.03;100.00;99891.75;4987593;28;20046;-60
2024/02/13 09:51:18;;;;;;;31.38;10.68;;;;;;;6.09;100.00;99898.63;4987818;28;21747;-60
2024/02/13 09:53:46;;;;;;;10.00;4.15;;;;;;;6.14;100.00;99887.47;4987304;28;20066;-61
2024/02/13 09:56:14;;;;;;;8.50;2.38;;;;;;;6.18;100.00;99885.66;4987662;28;20058;-62
2024/02/13 09:58:44;;;;;;;12.38;2.65;;;;;;;6.22;100.00;99880.28;4987531;28;20517;-62
2024/02/13 10:01:11;;;;;;;12.73;4.95;;;;;;;6.27;100.00;99869.09;4979973;28;20394;-61
2024/02/13 10:03:39;;;;;;;16.67;7.43;;;;;;;6.32;100.00;99879.88;4991341;28;20069;-60
2024/02/13 10:06:06;;;;;;;13.63;4.93;;;;;;;6.38;100.00;99873.03;4991251;28;20546;-62
2024/02/13 10:08:37;;;;;;;7.38;2.65;;;;;;;6.44;100.00;99861.47;4988366;28;20057;-62
2024/02/13 10:11:11;;;;;;;5.75;2.55;;;;;;;6.50;100.00;99865.63;4989974;28;20054;-62
2024/02/13 10:13:40;;;;;;;6.70;2.65;;;;;;;6.56;100.00;99853.25;4991162;28;20056;-66
2024/02/13 10:16:19;;;;;;;10.95;2.38;;;;;;;6.60;100.00;99859.66;4991240;28;20085;-62
2024/02/13 10:19:02;;;;;;;8.15;3.15;;;;;;;6.63;100.00;99861.75;4990325;28;20046;-62
2024/02/13 10:21:30;;;;;;;14.25;6.13;;;;;;;6.65;100.00;99859.47;4991493;28;20714;-62
2024/02/13 10:24:24;;;;;;;6.05;3.25;;;;;;;6.66;100.00;99860.25;4991021;28;20054;-62
2024/02/13 10:26:51;;;;;;;7.22;2.70;;;;;;;6.65;100.00;99855.91;4987296;28;20412;-62
2024/02/13 10:29:19;;;;;;;7.60;4.60;;;;;;;6.63;100.00;99853.50;4991199;28;20043;-62
2024/02/13 10:31:46;;;;;;;10.60;4.15;;;;;;;6.60;100.00;99859.66;4990839;28;20054;-61
2024/02/13 10:34:13;;;;;;;6.35;3.30;;;;;;;6.61;100.00;99865.97;4989876;28;20046;-62
2024/02/13 10:36:44;;;;;;;5.00;2.00;;;;;;;6.60;100.00;99858.88;4990654;28;20050;-62
2024/02/13 10:39:14;;;;;;;3.80;2.08;;;;;;;6.59;100.00;99858.06;4990552;28;20108;-62
2024/02/13 10:41:44;;;;;;;6.75;2.20;;;;;;;6.62;100.00;99862.06;4990758;28;20042;-62
2024/02/13 10:44:20;;;;;;;2.25;2.03;;;;;;;6.63;100.00;99861.75;4990703;28;20054;-62
2024/02/13 10:46:49;;;;;;;7.72;2.13;;;;;;;6.67;100.00;99859.13;4990939;28;20038;-62
2024/02/13 10:49:29;;;;;;;4.60;1.70;;;;;;;6.72;100.00;99854.19;4990840;28;20562;-62
2024/02/13 10:51:59;;;;;;;2.63;1.52;;;;;;;6.75;100.00;99864.50;4990386;28;20519;-62
2024/02/13 10:54:27;;;;;;;5.10;1.73;;;;;;;6.79;100.00;99853.63;4990915;28;20058;-62
2024/02/13 10:56:57;;;;;;;5.10;2.13;;;;;;;6.84;100.00;99858.09;4979183;28;20141;-61
2024/02/13 10:59:28;;;;;;;3.67;2.13;;;;;;;6.90;100.00;99857.56;4990332;28;20041;-63
2024/02/13 11:01:58;;;;;;;4.93;1.60;;;;;;;6.96;100.00;99853.44;4990372;28;20419;-63
2024/02/13 11:04:27;;;;;;;5.60;2.55;;;;;;;7.02;100.00;99859.50;4978982;28;20046;-62
2024/02/13 11:06:55;;;;;;;3.35;1.52;;;;;;;7.11;100.00;99858.25;4972486;28;20050;-62
2024/02/13 11:09:25;;;;;;;6.10;1.30;;;;;;;7.17;100.00;99861.59;4989185;28;20193;-62
2024/02/13 11:11:52;;;;;;;6.88;1.98;;;;;;;7.21;100.00;99857.78;4989578;28;20473;-62
2024/02/13 11:14:23;;;;;;;4.45;1.20;;;;;;;7.24;100.00;99850.81;4989310;28;20047;-62
2024/02/13 11:17:00;;;;;;;3.42;1.50;;;;;;;7.25;100.00;99855.16;4991293;28;20089;-61
2024/02/13 11:19:37;;;;;;;1.70;1.08;;;;;;;7.28;100.00;99858.00;4978950;28;20141;-62
2024/02/13 11:22:22;;;;;;;4.23;1.80;;;;;;;7.33;100.00;99859.75;4990033;28;20080;-62
2024/02/13 11:24:53;;;;;;;10.05;5.20;;;;;;;7.39;100.00;99858.34;4989665;28;20065;-62
2024/02/13 11:27:25;;;;;;;23.35;12.20;;;;;;;7.42;100.00;99854.09;4989985;28;20065;-62
2024/02/13 11:30:02;;;;;;;12.38;7.15;;;;;;;7.48;100.00;99856.28;4989923;28;20251;-62
2024/02/13 11:32:37;;;;;;;13.77;6.10;;;;;;;7.58;100.00;99850.31;4988546;28;20061;-63
2024/02/13 11:35:10;;;;;;;15.75;6.65;;;;;;;7.70;100.00;99855.00;4989897;28;20501;-61
2024/02/13 11:37:41;;;;;;;11.13;3.40;;;;;;;7.77;100.00;99856.00;4989835;28;20058;-62
2024/02/13 11:40:12;;;;;;;5.70;3.35;;;;;;;7.81;100.00;99850.63;4989141;28;20054;-62
2024/02/13 11:42:41;;;;;;;6.95;4.50;;;;;;;7.80;100.00;99857.28;4987873;28;20085;-62